Time;durP1;ratioP1;P1;durP2;ratioP2;P2;SDS_P1;SDS_P2;PMS_P1;PMS_P2;Temp;Humidity;BMP_temperature;BMP_pressure;BME280_temperature;BME280_humidity;BME280_pressure;Samples;Min_cycle;Max_cycle;Signal;HPM_P1;HPM_P2
2021/09/09 00:02:14;;;;;;;9.77;8.23;;;17.10;99.90;;;;;;5053151;28;20028;-71
2021/09/09 00:04:40;;;;;;;10.05;8.70;;;17.00;99.90;;;;;;5051949;28;20655;-71
2021/09/09 00:07:06;;;;;;;12.20;9.65;;;17.00;99.90;;;;;;5052199;28;20489;-70
2021/09/09 00:09:31;;;;;;;11.43;9.13;;;17.00;99.90;;;;;;5051288;28;20033;-69
2021/09/09 00:11:57;;;;;;;9.80;8.35;;;17.00;99.90;;;;;;5051439;28;20115;-71
2021/09/09 00:14:23;;;;;;;11.35;8.50;;;17.00;99.90;;;;;;5051178;28;20032;-69
2021/09/09 00:16:49;;;;;;;9.32;8.32;;;17.00;99.90;;;;;;5051279;28;20370;-71
2021/09/09 00:19:15;;;;;;;12.52;9.77;;;17.00;99.90;;;;;;5051859;28;20390;-71
2021/09/09 00:21:41;;;;;;;10.80;8.65;;;17.00;99.90;;;;;;5051024;28;20036;-71
2021/09/09 00:24:06;;;;;;;10.85;8.95;;;17.00;99.90;;;;;;5052252;28;20035;-71
2021/09/09 00:26:32;;;;;;;9.43;8.38;;;16.90;99.90;;;;;;5051753;28;20448;-71
2021/09/09 00:28:57;;;;;;;9.82;8.18;;;16.90;99.90;;;;;;5051006;28;20032;-71
2021/09/09 00:31:23;;;;;;;12.35;9.38;;;16.80;99.90;;;;;;5050065;28;20020;-69
2021/09/09 00:33:49;;;;;;;11.82;9.40;;;16.80;99.90;;;;;;5051114;28;20025;-69
2021/09/09 00:36:15;;;;;;;10.75;8.95;;;16.80;99.90;;;;;;5052262;28;20386;-71
2021/09/09 00:38:40;;;;;;;10.82;8.90;;;16.80;99.90;;;;;;5050860;28;20829;-71
2021/09/09 00:41:06;;;;;;;12.63;8.95;;;16.70;99.90;;;;;;5051469;28;20025;-71
2021/09/09 00:43:32;;;;;;;11.45;8.63;;;16.70;99.90;;;;;;5050603;28;20497;-71
2021/09/09 00:45:58;;;;;;;10.60;8.75;;;16.70;99.90;;;;;;5051415;28;20028;-70
2021/09/09 00:48:25;;;;;;;10.82;8.95;;;16.70;99.90;;;;;;5050807;28;20029;-69
2021/09/09 00:50:51;;;;;;;11.80;9.52;;;16.60;99.90;;;;;;5051486;28;20104;-71
2021/09/09 00:53:17;;;;;;;9.63;8.18;;;16.60;99.90;;;;;;5051094;28;20054;-71
2021/09/09 00:55:44;;;;;;;10.23;9.10;;;16.60;99.90;;;;;;5050972;28;20055;-71
2021/09/09 00:58:10;;;;;;;11.77;9.73;;;16.50;99.90;;;;;;5051311;28;20079;-71
2021/09/09 01:00:39;;;;;;;12.45;9.25;;;16.50;99.90;;;;;;5051564;28;20056;-70
2021/09/09 01:03:08;;;;;;;12.73;10.05;;;16.50;99.90;;;;;;5052082;28;20025;-71
2021/09/09 01:05:38;;;;;;;10.55;9.07;;;16.50;99.90;;;;;;5051248;28;20100;-71
2021/09/09 01:08:07;;;;;;;11.68;8.82;;;16.50;99.90;;;;;;5051136;28;20033;-70
2021/09/09 01:10:36;;;;;;;11.10;9.18;;;16.50;99.90;;;;;;5049096;28;20113;-70
2021/09/09 01:13:08;;;;;;;10.60;9.30;;;16.40;99.90;;;;;;5050981;28;20037;-70
2021/09/09 01:15:38;;;;;;;8.75;7.78;;;16.50;99.90;;;;;;5050661;28;20021;-71
2021/09/09 01:18:08;;;;;;;;;;;16.40;99.90;;;;;;5050246;28;20033;-71
2021/09/09 01:20:34;;;;;;;9.25;8.25;;;16.40;99.90;;;;;;5050696;28;19905;-71
2021/09/09 01:23:00;;;;;;;9.95;8.35;;;16.30;99.90;;;;;;5051576;28;20040;-71
2021/09/09 01:25:26;;;;;;;13.75;8.95;;;16.30;99.90;;;;;;5050782;28;20021;-69
2021/09/09 01:27:51;;;;;;;9.27;8.27;;;16.30;99.90;;;;;;5051069;28;20375;-71
2021/09/09 01:30:17;;;;;;;11.55;8.82;;;16.20;99.90;;;;;;5055057;28;20356;-72
2021/09/09 01:32:43;;;;;;;11.13;8.88;;;16.20;99.90;;;;;;5054776;28;20743;-71
2021/09/09 01:35:09;;;;;;;9.60;8.07;;;16.20;99.90;;;;;;5054789;28;20142;-71
2021/09/09 01:37:34;;;;;;;10.45;8.25;;;16.10;99.90;;;;;;5053841;28;20467;-71
2021/09/09 01:40:00;;;;;;;11.00;9.07;;;16.10;99.90;;;;;;5053578;28;20029;-71
2021/09/09 01:42:26;;;;;;;11.55;8.68;;;16.10;99.90;;;;;;5053811;28;20126;-69
2021/09/09 01:44:51;;;;;;;13.45;9.45;;;16.10;99.90;;;;;;5054940;28;20032;-71
2021/09/09 01:47:17;;;;;;;10.23;8.40;;;16.10;99.90;;;;;;5055132;28;20423;-72
2021/09/09 01:49:43;;;;;;;12.45;8.98;;;16.10;99.90;;;;;;5052978;28;20119;-70
2021/09/09 01:52:09;;;;;;;12.10;9.50;;;16.10;99.90;;;;;;5055038;28;20075;-71
2021/09/09 01:54:35;;;;;;;9.48;8.45;;;16.10;99.90;;;;;;5053954;28;20029;-70
2021/09/09 01:57:00;;;;;;;11.93;8.82;;;16.10;99.90;;;;;;5054409;28;20460;-71
2021/09/09 01:59:26;;;;;;;12.70;8.48;;;16.10;99.90;;;;;;5054409;28;20020;-69
2021/09/09 02:01:52;;;;;;;11.63;8.50;;;16.10;99.90;;;;;;5054771;28;20075;-71
2021/09/09 02:04:17;;;;;;;10.30;8.60;;;16.00;99.90;;;;;;5054066;28;20025;-71
2021/09/09 02:06:43;;;;;;;9.68;8.30;;;16.00;99.90;;;;;;5053087;28;20374;-70
2021/09/09 02:09:08;;;;;;;11.10;8.88;;;16.00;99.90;;;;;;5054180;28;20032;-71
2021/09/09 02:11:34;;;;;;;10.07;8.25;;;15.90;99.90;;;;;;5053201;28;20029;-70
2021/09/09 02:14:00;;;;;;;11.98;8.65;;;15.90;99.90;;;;;;5054108;28;20108;-71
2021/09/09 02:16:25;;;;;;;9.80;8.65;;;15.90;99.90;;;;;;5053002;28;20021;-69
2021/09/09 02:18:51;;;;;;;11.20;8.95;;;15.90;99.90;;;;;;5053706;28;20487;-71
2021/09/09 02:21:17;;;;;;;9.75;8.23;;;15.80;99.90;;;;;;5054350;28;20418;-71
2021/09/09 02:23:43;;;;;;;11.07;8.82;;;15.80;99.90;;;;;;5053752;28;20024;-70
2021/09/09 02:26:08;;;;;;;12.45;9.35;;;15.80;99.90;;;;;;5053006;28;20021;-70
2021/09/09 02:28:34;;;;;;;10.35;8.75;;;15.80;99.90;;;;;;5052548;28;20166;-71
2021/09/09 02:31:00;;;;;;;10.85;8.85;;;15.70;99.90;;;;;;5053298;28;20507;-71
2021/09/09 02:33:25;;;;;;;13.82;9.38;;;15.70;99.90;;;;;;5053714;28;20033;-69
2021/09/09 02:35:51;;;;;;;12.52;8.75;;;15.70;99.90;;;;;;5052764;28;20390;-71
2021/09/09 02:38:17;;;;;;;13.65;9.68;;;15.70;99.90;;;;;;5053576;28;20517;-71
2021/09/09 02:40:42;;;;;;;10.77;8.25;;;15.70;99.90;;;;;;5052627;28;20039;-71
2021/09/09 02:43:08;;;;;;;12.05;8.88;;;15.60;99.90;;;;;;5052913;28;20048;-71
2021/09/09 02:45:34;;;;;;;10.57;8.27;;;15.60;99.90;;;;;;5053040;28;20466;-70
2021/09/09 02:48:02;;;;;;;9.75;8.55;;;15.50;99.90;;;;;;5054101;28;20071;-71
2021/09/09 02:50:28;;;;;;;10.27;9.20;;;15.50;99.90;;;;;;5053343;28;20025;-69
2021/09/09 02:52:53;;;;;;;10.38;8.88;;;15.50;99.90;;;;;;5053764;28;20036;-70
2021/09/09 02:55:19;;;;;;;11.40;8.60;;;15.50;99.90;;;;;;5052978;28;20108;-71
2021/09/09 02:57:45;;;;;;;12.45;9.15;;;15.50;99.90;;;;;;5052542;28;20775;-71
2021/09/09 03:00:11;;;;;;;12.60;10.20;;;15.50;99.90;;;;;;5053528;28;20111;-71
2021/09/09 03:02:37;;;;;;;12.50;9.77;;;15.40;99.90;;;;;;5052260;28;20037;-70
2021/09/09 03:05:03;;;;;;;11.02;9.02;;;15.50;99.90;;;;;;5052879;28;20033;-71
2021/09/09 03:07:29;;;;;;;10.75;9.00;;;15.50;99.90;;;;;;5053214;28;20089;-69
2021/09/09 03:09:54;;;;;;;10.73;8.90;;;15.50;99.90;;;;;;5053438;28;20036;-71
2021/09/09 03:12:20;;;;;;;12.05;9.93;;;15.50;99.90;;;;;;5053077;28;20044;-70
2021/09/09 03:14:46;;;;;;;11.15;9.50;;;15.50;99.90;;;;;;5051354;28;20827;-70
2021/09/09 03:17:11;;;;;;;9.50;8.60;;;15.50;99.90;;;;;;5052546;28;20040;-71
2021/09/09 03:19:38;;;;;;;13.45;9.68;;;15.50;99.90;;;;;;5052664;28;20032;-71
2021/09/09 03:22:04;;;;;;;11.70;9.75;;;15.50;99.90;;;;;;5053431;28;20035;-71
2021/09/09 03:24:30;;;;;;;11.02;8.85;;;15.50;99.90;;;;;;5052712;28;20455;-69
2021/09/09 03:26:56;;;;;;;11.63;8.65;;;15.50;99.90;;;;;;5052857;28;20036;-70
2021/09/09 03:29:21;;;;;;;11.80;9.13;;;15.40;99.90;;;;;;5052697;28;20021;-70
2021/09/09 03:31:47;;;;;;;11.45;8.70;;;15.40;99.90;;;;;;5051922;28;20032;-72
2021/09/09 03:34:12;;;;;;;12.07;10.18;;;15.30;99.90;;;;;;5052413;28;20029;-72
2021/09/09 03:36:38;;;;;;;12.05;9.70;;;15.30;99.90;;;;;;5051893;28;20484;-72
2021/09/09 03:39:04;;;;;;;13.40;10.20;;;15.30;99.90;;;;;;5052628;28;20036;-72
2021/09/09 03:41:29;;;;;;;11.10;9.60;;;15.30;99.90;;;;;;5052358;28;20067;-70
2021/09/09 03:43:55;;;;;;;14.10;9.88;;;15.30;99.90;;;;;;5051178;28;20037;-72
2021/09/09 03:46:21;;;;;;;11.55;10.10;;;15.20;99.90;;;;;;5052924;28;20108;-73
2021/09/09 03:48:46;;;;;;;12.90;10.43;;;15.20;99.90;;;;;;5051985;28;20048;-73
2021/09/09 03:51:12;;;;;;;13.40;10.05;;;15.20;99.90;;;;;;5052664;28;20063;-73
2021/09/09 03:53:37;;;;;;;12.68;10.02;;;15.20;99.90;;;;;;5051701;28;20033;-72
2021/09/09 03:56:03;;;;;;;11.60;10.40;;;15.20;99.90;;;;;;5051573;28;20033;-72
2021/09/09 03:58:29;;;;;;;12.05;10.13;;;15.10;99.90;;;;;;5051604;28;20033;-71
2021/09/09 04:00:55;;;;;;;13.07;11.30;;;15.10;99.90;;;;;;5051323;28;20144;-72
2021/09/09 04:03:20;;;;;;;13.02;11.23;;;15.10;99.90;;;;;;5051795;28;20462;-72
2021/09/09 04:05:46;;;;;;;13.52;11.25;;;15.10;99.90;;;;;;5051318;28;20463;-72
2021/09/09 04:08:11;;;;;;;12.77;10.93;;;15.10;99.90;;;;;;5051736;28;20043;-71
2021/09/09 04:10:37;;;;;;;14.57;11.85;;;15.10;99.90;;;;;;5051780;28;20037;-72
2021/09/09 04:13:03;;;;;;;11.95;9.60;;;15.00;99.90;;;;;;5052139;28;20458;-72
2021/09/09 04:15:28;;;;;;;12.38;10.35;;;15.00;99.90;;;;;;5052156;28;20047;-70
2021/09/09 04:17:54;;;;;;;12.48;10.70;;;15.00;99.90;;;;;;5051434;28;20033;-72
2021/09/09 04:20:20;;;;;;;12.55;10.50;;;15.00;99.90;;;;;;5051666;28;20029;-72
2021/09/09 04:22:45;;;;;;;14.80;10.93;;;15.00;99.90;;;;;;5050853;28;20025;-72
2021/09/09 04:25:11;;;;;;;11.90;10.15;;;15.00;99.90;;;;;;5051798;28;20021;-72
2021/09/09 04:27:37;;;;;;;15.48;11.32;;;15.00;99.90;;;;;;5050788;28;20037;-72
2021/09/09 04:30:05;;;;;;;20.98;11.57;;;15.00;99.90;;;;;;5051582;28;20048;-72
2021/09/09 04:32:30;;;;;;;14.32;10.90;;;15.10;99.90;;;;;;5051572;28;20028;-70
2021/09/09 04:34:56;;;;;;;15.00;11.40;;;15.00;99.90;;;;;;5051367;28;20086;-72
2021/09/09 04:37:22;;;;;;;12.10;10.85;;;15.10;99.90;;;;;;5051548;28;20082;-72
2021/09/09 04:39:48;;;;;;;17.17;12.20;;;15.00;99.90;;;;;;5051346;28;20037;-72
2021/09/09 04:42:13;;;;;;;15.93;12.75;;;15.10;99.90;;;;;;5051994;28;20052;-72
2021/09/09 04:44:39;;;;;;;17.58;12.43;;;15.10;99.90;;;;;;5050487;28;20044;-71
2021/09/09 04:47:04;;;;;;;16.20;12.18;;;15.10;99.90;;;;;;5042930;28;20462;-72
2021/09/09 04:49:30;;;;;;;17.63;11.65;;;15.00;99.90;;;;;;5051286;28;20028;-70
2021/09/09 04:51:56;;;;;;;16.75;12.85;;;15.10;99.90;;;;;;5050429;28;20059;-71
2021/09/09 04:54:21;;;;;;;16.10;12.68;;;15.10;99.90;;;;;;5051657;28;20024;-72
2021/09/09 04:56:47;;;;;;;15.57;12.57;;;15.10;99.90;;;;;;5049051;28;20033;-72
2021/09/09 04:59:13;;;;;;;15.95;11.98;;;15.10;99.90;;;;;;5051695;28;20041;-78
2021/09/09 05:01:38;;;;;;;17.70;13.15;;;15.10;99.90;;;;;;5049154;28;20387;-72
2021/09/09 05:04:04;;;;;;;21.02;13.50;;;15.10;99.90;;;;;;5055291;28;20160;-72
2021/09/09 05:06:30;;;;;;;14.85;12.75;;;15.10;99.90;;;;;;5058313;28;20025;-70
2021/09/09 05:08:56;;;;;;;19.05;12.50;;;15.10;99.90;;;;;;5056946;28;20494;-72
2021/09/09 05:11:21;;;;;;;15.45;12.60;;;15.10;99.90;;;;;;5057937;28;20382;-71
2021/09/09 05:13:47;;;;;;;15.93;12.95;;;15.10;99.90;;;;;;5056639;28;20051;-72
2021/09/09 05:16:13;;;;;;;16.10;13.57;;;15.10;99.90;;;;;;5056892;28;20025;-72
2021/09/09 05:18:39;;;;;;;15.90;13.18;;;15.20;99.90;;;;;;5057183;28;20037;-72
2021/09/09 05:21:04;;;;;;;15.13;12.48;;;15.20;99.90;;;;;;5058033;28;20033;-72
2021/09/09 05:23:30;;;;;;;16.05;12.25;;;15.20;99.90;;;;;;5058042;28;20027;-71
2021/09/09 05:25:56;;;;;;;14.98;12.95;;;15.20;99.90;;;;;;5056887;28;20425;-72
2021/09/09 05:28:21;;;;;;;15.85;12.00;;;15.20;99.90;;;;;;5057574;28;20448;-73
2021/09/09 05:30:47;;;;;;;14.55;12.57;;;15.20;99.90;;;;;;5057203;28;20029;-72
2021/09/09 05:33:13;;;;;;;15.63;11.82;;;15.30;99.90;;;;;;5057814;28;20024;-72
2021/09/09 05:35:44;;;;;;;13.05;11.65;;;15.30;99.90;;;;;;5055850;28;20032;-71
2021/09/09 05:38:10;;;;;;;17.70;12.45;;;15.40;99.90;;;;;;5058140;28;20036;-72
2021/09/09 05:40:36;;;;;;;19.02;12.70;;;15.40;99.90;;;;;;5057394;28;20482;-71
2021/09/09 05:43:02;;;;;;;16.42;12.52;;;15.50;99.90;;;;;;5057310;28;20053;-73
2021/09/09 05:45:28;;;;;;;19.55;12.55;;;15.50;99.90;;;;;;5049564;28;20035;-71
2021/09/09 05:47:53;;;;;;;20.63;13.63;;;15.60;99.90;;;;;;5046156;28;20615;-72
2021/09/09 05:50:19;;;;;;;14.30;11.68;;;15.70;99.90;;;;;;5057060;28;20037;-73
2021/09/09 05:52:46;;;;;;;14.15;11.35;;;15.80;99.90;;;;;;5052655;28;20057;-73
2021/09/09 05:55:12;;;;;;;14.02;11.27;;;15.90;99.90;;;;;;5056722;28;20067;-71
2021/09/09 05:57:38;;;;;;;13.68;11.00;;;16.00;99.90;;;;;;5056781;28;20035;-74
2021/09/09 06:00:05;;;;;;;12.77;10.93;;;16.10;99.90;;;;;;5056889;28;20441;-77
2021/09/09 06:02:33;;;;;;;12.30;11.00;;;16.20;99.90;;;;;;5057226;28;20381;-77
2021/09/09 06:04:59;;;;;;;14.70;11.65;;;16.40;99.90;;;;;;5057295;28;20025;-81
2021/09/09 06:07:27;;;;;;;15.80;11.73;;;16.60;99.90;;;;;;5058018;28;20075;-75
2021/09/09 06:09:53;;;;;;;12.40;11.10;;;16.80;99.90;;;;;;5056443;28;20140;-76
2021/09/09 06:12:19;;;;;;;14.88;10.85;;;16.90;99.90;;;;;;5057320;28;20107;-77
2021/09/09 06:14:45;;;;;;;13.88;10.82;;;17.00;99.90;;;;;;5054430;28;20037;-77
2021/09/09 06:17:11;;;;;;;16.83;11.30;;;17.10;99.90;;;;;;5053434;28;20036;-76
2021/09/09 06:19:37;;;;;;;12.75;10.40;;;17.30;99.90;;;;;;5053272;28;20037;-75
2021/09/09 06:22:03;;;;;;;18.13;8.95;;;17.50;99.90;;;;;;5054474;28;20040;-84
2021/09/09 06:24:29;;;;;;;8.98;7.63;;;17.80;99.90;;;;;;5052276;28;20033;-81
2021/09/09 06:26:55;;;;;;;10.52;7.45;;;18.10;99.90;;;;;;5053250;28;20028;-74
2021/09/09 06:29:20;;;;;;;12.35;7.78;;;18.60;99.90;;;;;;5052595;28;20032;-74
2021/09/09 06:31:46;;;;;;;8.68;6.97;;;19.00;99.90;;;;;;5052844;28;20025;-73
2021/09/09 06:34:12;;;;;;;9.65;7.03;;;19.40;99.90;;;;;;5053351;28;20078;-73
2021/09/09 06:36:37;;;;;;;11.73;7.28;;;19.70;99.90;;;;;;5052814;28;20490;-77
2021/09/09 06:39:03;;;;;;;8.93;6.63;;;20.00;99.90;;;;;;5053226;28;20029;-74
2021/09/09 06:41:29;;;;;;;9.10;6.72;;;20.30;99.90;;;;;;5053170;28;20079;-73
2021/09/09 06:43:54;;;;;;;9.95;6.80;;;20.50;99.90;;;;;;5052219;28;20021;-73
2021/09/09 06:46:20;;;;;;;9.77;7.30;;;20.70;99.90;;;;;;5051700;28;20036;-74
2021/09/09 06:48:46;;;;;;;10.30;6.88;;;20.80;99.90;;;;;;5054251;28;20028;-74
2021/09/09 06:51:11;;;;;;;8.30;6.97;;;20.90;99.90;;;;;;5053161;28;20075;-74
2021/09/09 06:53:37;;;;;;;14.65;7.10;;;20.90;99.90;;;;;;5052848;28;20140;-72
2021/09/09 06:56:03;;;;;;;9.55;6.63;;;21.00;99.50;;;;;;5053142;28;20025;-74
2021/09/09 06:58:29;;;;;;;9.90;6.97;;;21.00;99.50;;;;;;5052826;28;20043;-74
2021/09/09 07:00:54;;;;;;;6.78;5.80;;;21.00;99.30;;;;;;5052090;28;20584;-74
2021/09/09 07:03:20;;;;;;;7.70;6.10;;;21.00;99.30;;;;;;5052915;28;20451;-73
2021/09/09 07:05:45;;;;;;;8.07;6.43;;;21.00;99.70;;;;;;5052042;28;20029;-75
2021/09/09 07:08:11;;;;;;;10.20;6.55;;;21.10;99.30;;;;;;5052083;28;20021;-74
2021/09/09 07:10:37;;;;;;;7.90;6.57;;;21.10;99.00;;;;;;5052256;28;20115;-72
2021/09/09 07:13:02;;;;;;;11.20;7.15;;;21.10;98.70;;;;;;5052772;28;20037;-72
2021/09/09 07:15:28;;;;;;;9.13;7.05;;;21.10;98.40;;;;;;5052791;28;20028;-73
2021/09/09 07:17:54;;;;;;;10.40;7.10;;;21.10;98.70;;;;;;5051567;28;20029;-72
2021/09/09 07:20:19;;;;;;;10.95;7.35;;;21.10;99.10;;;;;;5052773;28;20079;-72
2021/09/09 07:22:45;;;;;;;9.85;7.28;;;21.00;99.20;;;;;;5052024;28;20021;-72
2021/09/09 07:25:11;;;;;;;8.82;6.88;;;21.00;99.10;;;;;;5043623;28;20060;-72
2021/09/09 07:27:37;;;;;;;7.95;6.75;;;21.00;99.10;;;;;;5051674;28;20029;-71
2021/09/09 07:30:04;;;;;;;8.35;6.93;;;21.00;99.40;;;;;;5052053;28;20462;-72
2021/09/09 07:32:30;;;;;;;9.27;7.05;;;21.00;99.60;;;;;;5044467;28;20031;-72
2021/09/09 07:34:56;;;;;;;10.27;7.30;;;21.00;99.60;;;;;;5051352;28;20100;-74
2021/09/09 07:37:21;;;;;;;11.95;7.20;;;21.10;99.70;;;;;;5052393;28;20037;-75
2021/09/09 07:39:47;;;;;;;7.88;6.88;;;21.20;99.50;;;;;;5051222;28;20465;-72
2021/09/09 07:42:13;;;;;;;10.00;6.93;;;21.40;98.80;;;;;;5051993;28;20055;-73
2021/09/09 07:44:38;;;;;;;8.93;6.82;;;21.50;98.90;;;;;;5051284;28;20470;-72
2021/09/09 07:47:05;;;;;;;10.70;6.95;;;21.60;98.40;;;;;;5051460;28;20033;-74
2021/09/09 07:49:31;;;;;;;12.68;7.18;;;21.70;98.60;;;;;;5051146;28;20021;-72
2021/09/09 07:51:57;;;;;;;7.50;6.78;;;21.70;98.50;;;;;;5051407;28;20051;-74
2021/09/09 07:54:22;;;;;;;8.73;6.68;;;21.80;98.00;;;;;;5051365;28;20056;-72
2021/09/09 07:56:48;;;;;;;11.63;7.38;;;21.90;98.20;;;;;;5051354;28;20035;-72
2021/09/09 07:59:15;;;;;;;8.57;6.15;;;21.90;98.10;;;;;;5051762;28;20029;-71
2021/09/09 08:01:40;;;;;;;8.95;6.50;;;22.10;97.20;;;;;;5050699;28;20063;-71
2021/09/09 08:04:06;;;;;;;11.25;7.07;;;22.30;96.70;;;;;;5052232;28;20060;-73
2021/09/09 08:06:32;;;;;;;7.82;6.68;;;22.50;95.80;;;;;;5051834;28;20025;-73
2021/09/09 08:08:58;;;;;;;7.43;6.55;;;22.70;95.00;;;;;;5050472;28;20521;-74
2021/09/09 08:11:23;;;;;;;10.85;6.78;;;22.90;94.40;;;;;;5051595;28;20036;-73
2021/09/09 08:13:52;;;;;;;7.30;6.05;;;23.20;93.30;;;;;;5050325;28;20037;-73
2021/09/09 08:16:20;;;;;;;9.48;6.32;;;23.30;92.90;;;;;;5051214;28;20056;-72
2021/09/09 08:18:46;;;;;;;7.15;6.47;;;23.50;92.10;;;;;;5050641;28;20529;-73
2021/09/09 08:21:12;;;;;;;9.45;5.93;;;23.70;91.00;;;;;;5050730;28;20025;-73
2021/09/09 08:23:37;;;;;;;12.63;6.88;;;23.80;90.40;;;;;;5050459;28;20036;-72
2021/09/09 08:26:03;;;;;;;7.20;6.50;;;23.90;89.60;;;;;;5050417;28;20021;-73
2021/09/09 08:28:29;;;;;;;11.77;6.50;;;24.10;87.80;;;;;;5051098;28;20033;-73
2021/09/09 08:30:55;;;;;;;8.88;5.88;;;24.20;86.20;;;;;;5050790;28;20029;-73
2021/09/09 08:33:21;;;;;;;8.18;6.25;;;24.30;84.20;;;;;;5051514;28;20062;-73
2021/09/09 08:35:46;;;;;;;8.27;5.63;;;24.40;83.80;;;;;;5050227;28;20064;-73
2021/09/09 08:38:12;;;;;;;12.23;6.05;;;24.50;83.30;;;;;;5050059;28;20045;-74
2021/09/09 08:40:39;;;;;;;6.95;5.72;;;24.50;82.30;;;;;;5050595;28;20028;-72
2021/09/09 08:43:06;;;;;;;10.20;5.90;;;24.60;81.90;;;;;;5050934;28;20044;-73
2021/09/09 08:45:32;;;;;;;6.63;5.40;;;24.70;81.40;;;;;;5049702;28;20021;-73
2021/09/09 08:48:03;;;;;;;8.65;6.53;;;24.70;81.20;;;;;;5040918;28;20025;-73
2021/09/09 08:50:29;;;;;;;;;;;24.70;80.50;;;;;;5031425;28;20414;-73
2021/09/09 08:52:54;;;;;;;6.00;5.40;;;24.60;80.20;;;;;;5034272;28;19950;-73
2021/09/09 08:55:20;;;;;;;8.05;5.85;;;24.70;80.30;;;;;;5050705;28;20025;-73
2021/09/09 08:57:46;;;;;;;11.43;6.10;;;24.70;79.90;;;;;;5049076;28;20486;-73
2021/09/09 09:00:13;;;;;;;7.15;5.95;;;24.60;79.80;;;;;;5050948;28;20116;-74
2021/09/09 09:02:50;;;;;;;8.23;6.45;;;24.50;81.00;;;;;;5050167;28;20060;-72
2021/09/09 09:05:15;;;;;;;6.95;6.25;;;24.50;81.60;;;;;;5051141;28;20044;-74
2021/09/09 09:07:41;;;;;;;7.57;5.65;;;24.60;82.60;;;;;;5050156;28;20470;-73
2021/09/09 09:10:08;;;;;;;6.78;5.57;;;24.60;81.10;;;;;;5051998;28;20025;-73
2021/09/09 09:12:52;;;;;;;7.07;5.82;;;24.80;80.40;;;;;;5051140;28;20033;-74
2021/09/09 09:15:22;;;;;;;12.98;5.80;;;24.90;79.50;;;;;;5042981;28;20838;-73
2021/09/09 09:18:08;;;;;;;;;;;25.10;78.50;;;;;;5051221;28;20024;-81
2021/09/09 09:20:49;;;;;;;11.32;5.50;;;25.20;77.80;;;;;;5031931;28;19955;-79
2021/09/09 09:23:27;;;;;;;13.23;5.95;;;25.30;76.90;;;;;;5047344;28;20107;-72
2021/09/09 09:26:03;;;;;;;15.57;7.05;;;25.50;76.30;;;;;;5049985;28;20056;-74
2021/09/09 09:28:45;;;;;;;12.27;6.00;;;25.60;75.50;;;;;;5051381;28;20429;-73
2021/09/09 09:31:17;;;;;;;13.70;5.70;;;25.60;75.70;;;;;;5050760;28;20377;-73
2021/09/09 09:33:45;;;;;;;18.48;6.05;;;25.80;74.90;;;;;;5041729;28;20029;-73
2021/09/09 09:36:16;;;;;;;9.10;5.60;;;26.00;74.70;;;;;;5052783;28;20049;-75
2021/09/09 09:38:43;;;;;;;10.32;5.75;;;26.10;74.10;;;;;;5050545;28;20115;-73
2021/09/09 09:41:09;;;;;;;8.95;6.05;;;26.30;73.60;;;;;;5050687;28;20047;-76
2021/09/09 09:43:35;;;;;;;11.93;5.70;;;26.40;72.50;;;;;;5050706;28;20036;-76
2021/09/09 09:46:02;;;;;;;8.23;6.00;;;26.40;72.20;;;;;;5049688;28;20175;-72
2021/09/09 09:48:30;;;;;;;12.18;6.22;;;26.40;71.30;;;;;;5051141;28;20029;-72
2021/09/09 09:50:56;;;;;;;9.32;5.72;;;26.50;70.70;;;;;;5052568;28;20029;-79
2021/09/09 09:53:22;;;;;;;7.25;5.70;;;26.70;70.90;;;;;;5053718;28;20033;-76
2021/09/09 09:55:48;;;;;;;9.02;6.00;;;;;;;;;;5053818;28;20036;-80
2021/09/09 09:58:18;;;;;;;11.90;6.20;;;;;;;;;;5054505;28;20115;-81
2021/09/09 10:00:44;;;;;;;6.90;5.23;;;;;;;;;;5053218;28;20033;-86
2021/09/09 10:03:10;;;;;;;10.40;5.28;;;;;;;;;;5055090;28;20023;-90
2021/09/09 10:05:37;;;;;;;9.10;5.28;;;27.60;67.50;;;;;;5054032;28;20029;-81
2021/09/09 10:08:07;;;;;;;9.85;5.68;;;27.70;67.80;;;;;;5050401;28;20053;-82
2021/09/09 10:10:33;;;;;;;7.80;4.88;;;27.80;67.70;;;;;;5054717;28;20398;-84
2021/09/09 10:13:00;;;;;;;14.40;6.03;;;27.90;67.60;;;;;;5055002;28;20064;-89
2021/09/09 10:15:26;;;;;;;14.70;5.40;;;28.10;66.10;;;;;;5057049;28;20040;-81
2021/09/09 10:17:54;;;;;;;7.80;4.97;;;28.30;65.60;;;;;;5053182;28;20037;-78
2021/09/09 10:20:32;;;;;;;7.40;5.43;;;28.40;64.90;;;;;;5055316;28;20082;-78
2021/09/09 10:23:01;;;;;;;6.78;5.72;;;28.40;64.80;;;;;;5052244;28;20614;-86
2021/09/09 10:26:03;;;;;;;6.72;5.13;;;28.40;65.20;;;;;;5053479;28;20509;-77
2021/09/09 10:28:38;;;;;;;6.68;4.75;;;28.30;63.60;;;;;;5025014;28;20049;-77
2021/09/09 10:31:13;;;;;;;6.82;4.57;;;28.30;63.30;;;;;;5042110;28;20044;-77
2021/09/09 10:33:44;;;;;;;5.13;4.35;;;28.30;63.50;;;;;;5052692;28;20593;-76
2021/09/09 10:36:37;;;;;;;7.90;4.57;;;28.40;62.90;;;;;;5059212;28;20020;-76
2021/09/09 10:39:03;;;;;;;7.25;4.95;;;28.50;62.80;;;;;;5054125;28;20178;-76
2021/09/09 10:41:29;;;;;;;13.88;5.00;;;28.50;62.40;;;;;;5053244;28;20107;-78
2021/09/09 10:44:00;;;;;;;6.22;5.10;;;28.60;62.30;;;;;;5052766;28;20032;-76
2021/09/09 10:46:36;;;;;;;6.55;5.25;;;28.60;62.50;;;;;;5053481;28;20100;-76
2021/09/09 10:49:21;;;;;;;6.05;5.18;;;28.80;62.50;;;;;;5052437;28;20098;-76
2021/09/09 10:52:10;;;;;;;10.65;5.20;;;29.00;62.00;;;;;;5045157;28;20094;-73
2021/09/09 10:55:02;;;;;;;5.45;4.95;;;28.90;62.10;;;;;;5052283;28;20025;-80
2021/09/09 10:57:28;;;;;;;10.32;5.10;;;29.00;62.20;;;;;;5052155;28;20182;-73
2021/09/09 10:59:53;;;;;;;6.82;4.82;;;28.90;62.00;;;;;;5052642;28;20111;-75
2021/09/09 11:02:19;;;;;;;7.70;4.85;;;28.90;61.80;;;;;;5051154;28;20052;-75
2021/09/09 11:04:48;;;;;;;9.85;5.10;;;29.10;61.10;;;;;;5052631;28;20017;-74
2021/09/09 11:07:27;;;;;;;6.03;4.47;;;29.20;60.90;;;;;;5057190;28;20101;-75
2021/09/09 11:10:04;;;;;;;6.47;4.60;;;29.30;84.30;;;;;;5052142;28;20055;-75
2021/09/09 11:12:41;;;;;;;4.63;4.10;;;29.50;86.50;;;;;;5052771;28;20028;-75
2021/09/09 11:15:09;;;;;;;8.60;4.40;;;29.60;86.00;;;;;;5052403;28;20029;-75
2021/09/09 11:17:35;;;;;;;6.22;4.78;;;29.60;85.40;;;;;;5052889;28;20040;-75
2021/09/09 11:20:05;;;;;;;9.07;4.50;;;29.70;84.90;;;;;;5051786;28;20087;-75
2021/09/09 11:22:31;;;;;;;13.63;4.72;;;;;;;;;;5052158;28;20064;-75
2021/09/09 11:24:58;;;;;;;9.10;4.60;;;;;;;;;;5051721;28;20020;-75
2021/09/09 11:27:28;;;;;;;11.27;4.80;;;;;;;;;;5051269;28;20114;-75
2021/09/09 11:29:57;;;;;;;;;;;29.80;58.50;;;;;;5052135;28;20025;-75
2021/09/09 11:32:22;;;;;;;8.93;4.70;;;29.70;59.40;;;;;;5044300;28;20007;-75
2021/09/09 11:34:48;;;;;;;6.32;4.35;;;29.70;59.40;;;;;;5051452;28;20562;-74
2021/09/09 11:37:14;;;;;;;5.70;4.20;;;29.80;59.00;;;;;;5056820;28;20049;-75
2021/09/09 11:39:39;;;;;;;5.20;4.70;;;29.90;59.20;;;;;;5050544;28;20056;-75
2021/09/09 11:42:07;;;;;;;10.57;4.13;;;30.00;59.50;;;;;;5051116;28;20083;-75
2021/09/09 11:44:38;;;;;;;8.25;4.93;;;30.10;59.00;;;;;;5052462;28;20028;-75
2021/09/09 11:47:22;;;;;;;6.15;4.38;;;30.20;58.80;;;;;;5051064;28;20031;-75
2021/09/09 11:49:48;;;;;;;9.55;4.25;;;30.50;58.20;;;;;;5052331;28;20486;-75
2021/09/09 11:52:14;;;;;;;7.93;4.32;;;30.50;57.90;;;;;;5051830;28;20036;-75
2021/09/09 11:54:40;;;;;;;7.45;4.50;;;;;;;;;;5051709;28;20043;-75
2021/09/09 11:57:14;;;;;;;5.35;4.35;;;30.90;56.60;;;;;;5050851;28;20048;-75
2021/09/09 11:59:57;;;;;;;5.22;3.90;;;31.10;56.40;;;;;;5051508;28;20041;-75
2021/09/09 12:02:30;;;;;;;9.82;4.28;;;31.10;55.90;;;;;;5050711;28;20060;-76
2021/09/09 12:04:58;;;;;;;7.60;4.25;;;31.20;55.60;;;;;;5050145;28;20063;-75
2021/09/09 12:07:28;;;;;;;7.78;4.20;;;31.40;55.20;;;;;;5038124;28;20033;-75
2021/09/09 12:10:12;;;;;;;5.30;3.90;;;31.50;54.40;;;;;;5050258;28;20029;-75
2021/09/09 12:12:38;;;;;;;5.13;3.72;;;31.20;54.80;;;;;;5049506;28;20036;-75
2021/09/09 12:15:07;;;;;;;8.07;4.18;;;31.00;54.90;;;;;;5048898;28;20032;-75
2021/09/09 12:17:33;;;;;;;6.70;4.30;;;30.90;55.70;;;;;;5050068;28;20040;-75
2021/09/09 12:20:05;;;;;;;9.43;4.28;;;31.10;55.20;;;;;;5050428;28;20287;-74
2021/09/09 12:23:02;;;;;;;4.85;3.78;;;31.00;54.90;;;;;;5050931;28;20477;-74
2021/09/09 12:25:27;;;;;;;5.25;4.05;;;31.10;54.80;;;;;;5040845;28;20021;-74
2021/09/09 12:28:15;;;;;;;5.53;4.50;;;31.10;54.20;;;;;;5050673;28;20481;-75
2021/09/09 12:30:53;;;;;;;4.97;4.32;;;31.00;54.00;;;;;;5050753;28;20033;-75
2021/09/09 12:33:25;;;;;;;4.85;4.45;;;30.90;54.40;;;;;;5050973;28;20029;-75
2021/09/09 12:36:18;;;;;;;8.13;4.60;;;31.00;54.50;;;;;;5051161;28;20080;-75
2021/09/09 12:38:51;;;;;;;6.28;4.20;;;31.20;53.40;;;;;;5050942;28;20548;-76
2021/09/09 12:41:16;;;;;;;8.25;4.60;;;31.40;53.10;;;;;;5050605;28;20110;-75
2021/09/09 12:43:44;;;;;;;7.28;4.40;;;31.30;52.90;;;;;;5051180;28;20451;-75
2021/09/09 12:46:29;;;;;;;6.63;4.75;;;30.90;53.10;;;;;;5050192;28;20175;-76